sensor_id;sensor_type;location;lat;lon;timestamp;P1;durP1;ratioP1;P2;durP2;ratioP2
14282;SDS011;7225;59.282;18.344;2022-08-23T00:02:26;4.57;;;1.07;;
14282;SDS011;7225;59.282;18.344;2022-08-23T00:04:54;1.67;;;0.93;;
14282;SDS011;7225;59.282;18.344;2022-08-23T00:07:36;4.90;;;1.00;;
14282;SDS011;7225;59.282;18.344;2022-08-23T00:10:07;2.00;;;1.13;;
14282;SDS011;7225;59.282;18.344;2022-08-23T00:12:38;2.07;;;1.00;;
14282;SDS011;7225;59.282;18.344;2022-08-23T00:15:05;3.13;;;0.90;;
14282;SDS011;7225;59.282;18.344;2022-08-23T00:17:36;1.03;;;0.73;;
14282;SDS011;7225;59.282;18.344;2022-08-23T00:20:04;3.73;;;1.50;;
14282;SDS011;7225;59.282;18.344;2022-08-23T00:22:35;7.30;;;1.20;;
14282;SDS011;7225;59.282;18.344;2022-08-23T00:25:06;3.20;;;1.10;;
14282;SDS011;7225;59.282;18.344;2022-08-23T00:27:36;3.90;;;1.23;;
14282;SDS011;7225;59.282;18.344;2022-08-23T00:30:06;3.87;;;1.20;;
14282;SDS011;7225;59.282;18.344;2022-08-23T00:32:35;5.37;;;1.17;;
14282;SDS011;7225;59.282;18.344;2022-08-23T00:35:04;2.50;;;0.93;;
14282;SDS011;7225;59.282;18.344;2022-08-23T00:37:34;2.60;;;0.80;;
14282;SDS011;7225;59.282;18.344;2022-08-23T00:40:04;2.83;;;1.10;;
14282;SDS011;7225;59.282;18.344;2022-08-23T00:42:40;1.20;;;0.80;;
14282;SDS011;7225;59.282;18.344;2022-08-23T00:48:49;2.73;;;1.37;;
14282;SDS011;7225;59.282;18.344;2022-08-23T00:51:18;2.27;;;1.10;;
14282;SDS011;7225;59.282;18.344;2022-08-23T00:53:55;4.77;;;1.53;;
14282;SDS011;7225;59.282;18.344;2022-08-23T00:56:26;3.13;;;0.90;;
14282;SDS011;7225;59.282;18.344;2022-08-23T00:58:59;3.63;;;0.90;;
14282;SDS011;7225;59.282;18.344;2022-08-23T01:01:28;5.60;;;1.20;;
14282;SDS011;7225;59.282;18.344;2022-08-23T01:03:58;0.90;;;0.80;;
14282;SDS011;7225;59.282;18.344;2022-08-23T01:06:49;3.37;;;1.07;;
14282;SDS011;7225;59.282;18.344;2022-08-23T01:09:28;4.43;;;1.43;;
14282;SDS011;7225;59.282;18.344;2022-08-23T01:11:59;3.17;;;1.00;;
14282;SDS011;7225;59.282;18.344;2022-08-23T01:14:30;4.40;;;1.20;;
14282;SDS011;7225;59.282;18.344;2022-08-23T01:17:07;2.17;;;0.90;;
14282;SDS011;7225;59.282;18.344;2022-08-23T01:19:49;1.70;;;0.83;;
14282;SDS011;7225;59.282;18.344;2022-08-23T01:25:36;8.80;;;1.33;;
14282;SDS011;7225;59.282;18.344;2022-08-23T01:28:05;3.03;;;1.00;;
14282;SDS011;7225;59.282;18.344;2022-08-23T01:30:33;3.33;;;1.10;;
14282;SDS011;7225;59.282;18.344;2022-08-23T01:33:04;1.97;;;1.00;;
14282;SDS011;7225;59.282;18.344;2022-08-23T01:35:35;3.10;;;1.43;;
14282;SDS011;7225;59.282;18.344;2022-08-23T01:38:07;2.20;;;1.00;;
14282;SDS011;7225;59.282;18.344;2022-08-23T01:40:36;2.43;;;0.97;;
14282;SDS011;7225;59.282;18.344;2022-08-23T01:43:04;2.60;;;1.50;;
14282;SDS011;7225;59.282;18.344;2022-08-23T01:45:34;1.50;;;1.00;;
14282;SDS011;7225;59.282;18.344;2022-08-23T01:48:06;5.07;;;1.20;;
14282;SDS011;7225;59.282;18.344;2022-08-23T01:50:34;2.23;;;1.27;;
14282;SDS011;7225;59.282;18.344;2022-08-23T01:53:07;3.10;;;1.60;;
14282;SDS011;7225;59.282;18.344;2022-08-23T01:55:36;4.60;;;1.10;;
14282;SDS011;7225;59.282;18.344;2022-08-23T01:58:05;5.40;;;1.27;;
14282;SDS011;7225;59.282;18.344;2022-08-23T02:00:35;1.03;;;0.70;;
14282;SDS011;7225;59.282;18.344;2022-08-23T02:03:04;1.37;;;1.00;;
14282;SDS011;7225;59.282;18.344;2022-08-23T02:05:32;1.53;;;0.90;;
14282;SDS011;7225;59.282;18.344;2022-08-23T02:08:04;1.43;;;0.97;;
14282;SDS011;7225;59.282;18.344;2022-08-23T02:10:52;3.50;;;1.50;;
14282;SDS011;7225;59.282;18.344;2022-08-23T02:13:21;3.57;;;0.87;;
14282;SDS011;7225;59.282;18.344;2022-08-23T02:15:49;3.33;;;1.13;;
14282;SDS011;7225;59.282;18.344;2022-08-23T02:18:19;4.10;;;0.73;;
14282;SDS011;7225;59.282;18.344;2022-08-23T02:20:49;3.27;;;1.00;;
14282;SDS011;7225;59.282;18.344;2022-08-23T02:23:19;2.17;;;1.23;;
14282;SDS011;7225;59.282;18.344;2022-08-23T02:25:48;3.97;;;0.90;;
14282;SDS011;7225;59.282;18.344;2022-08-23T02:28:18;1.60;;;0.80;;
14282;SDS011;7225;59.282;18.344;2022-08-23T02:30:47;2.20;;;1.17;;
14282;SDS011;7225;59.282;18.344;2022-08-23T02:33:15;3.63;;;1.07;;
14282;SDS011;7225;59.282;18.344;2022-08-23T02:35:43;1.20;;;0.90;;
14282;SDS011;7225;59.282;18.344;2022-08-23T02:38:11;1.50;;;1.10;;
14282;SDS011;7225;59.282;18.344;2022-08-23T02:40:39;2.00;;;0.93;;
14282;SDS011;7225;59.282;18.344;2022-08-23T02:43:07;4.77;;;1.10;;
14282;SDS011;7225;59.282;18.344;2022-08-23T02:45:36;2.40;;;1.20;;
14282;SDS011;7225;59.282;18.344;2022-08-23T02:48:05;3.50;;;1.20;;
14282;SDS011;7225;59.282;18.344;2022-08-23T02:50:34;2.73;;;1.17;;
14282;SDS011;7225;59.282;18.344;2022-08-23T02:53:03;3.67;;;1.37;;
14282;SDS011;7225;59.282;18.344;2022-08-23T02:55:30;2.77;;;1.03;;
14282;SDS011;7225;59.282;18.344;2022-08-23T02:57:59;2.83;;;1.30;;
14282;SDS011;7225;59.282;18.344;2022-08-23T03:00:26;1.13;;;1.00;;
14282;SDS011;7225;59.282;18.344;2022-08-23T03:02:57;2.67;;;1.40;;
14282;SDS011;7225;59.282;18.344;2022-08-23T03:05:25;1.60;;;0.90;;
14282;SDS011;7225;59.282;18.344;2022-08-23T03:07:54;1.93;;;1.20;;
14282;SDS011;7225;59.282;18.344;2022-08-23T03:10:21;3.50;;;1.00;;
14282;SDS011;7225;59.282;18.344;2022-08-23T03:12:48;1.23;;;0.90;;
14282;SDS011;7225;59.282;18.344;2022-08-23T03:15:16;1.67;;;1.00;;
14282;SDS011;7225;59.282;18.344;2022-08-23T03:17:44;3.03;;;0.90;;
14282;SDS011;7225;59.282;18.344;2022-08-23T03:20:12;5.40;;;1.30;;
14282;SDS011;7225;59.282;18.344;2022-08-23T03:22:40;3.83;;;1.43;;
14282;SDS011;7225;59.282;18.344;2022-08-23T03:25:20;5.50;;;1.53;;
14282;SDS011;7225;59.282;18.344;2022-08-23T03:27:49;5.27;;;1.73;;
14282;SDS011;7225;59.282;18.344;2022-08-23T03:30:17;1.90;;;1.27;;
14282;SDS011;7225;59.282;18.344;2022-08-23T03:32:46;2.20;;;1.20;;
14282;SDS011;7225;59.282;18.344;2022-08-23T03:35:16;2.00;;;1.00;;
14282;SDS011;7225;59.282;18.344;2022-08-23T03:37:43;2.93;;;0.90;;
14282;SDS011;7225;59.282;18.344;2022-08-23T03:40:11;1.70;;;1.27;;
14282;SDS011;7225;59.282;18.344;2022-08-23T03:42:39;3.60;;;1.23;;
14282;SDS011;7225;59.282;18.344;2022-08-23T03:45:07;3.20;;;1.73;;
14282;SDS011;7225;59.282;18.344;2022-08-23T03:47:36;3.20;;;1.10;;
14282;SDS011;7225;59.282;18.344;2022-08-23T03:50:05;2.07;;;1.10;;
14282;SDS011;7225;59.282;18.344;2022-08-23T03:52:33;3.47;;;1.40;;
14282;SDS011;7225;59.282;18.344;2022-08-23T03:55:01;5.77;;;1.27;;
14282;SDS011;7225;59.282;18.344;2022-08-23T03:57:30;2.47;;;1.00;;
14282;SDS011;7225;59.282;18.344;2022-08-23T03:59:58;2.30;;;1.20;;
14282;SDS011;7225;59.282;18.344;2022-08-23T04:02:25;4.57;;;1.17;;
14282;SDS011;7225;59.282;18.344;2022-08-23T04:04:53;1.97;;;1.10;;
14282;SDS011;7225;59.282;18.344;2022-08-23T04:07:22;3.40;;;0.93;;
14282;SDS011;7225;59.282;18.344;2022-08-23T04:09:51;2.43;;;1.33;;
14282;SDS011;7225;59.282;18.344;2022-08-23T04:12:21;2.77;;;1.20;;
14282;SDS011;7225;59.282;18.344;2022-08-23T04:14:49;1.37;;;1.20;;
14282;SDS011;7225;59.282;18.344;2022-08-23T04:17:18;3.53;;;1.53;;
14282;SDS011;7225;59.282;18.344;2022-08-23T04:19:48;5.23;;;2.00;;
14282;SDS011;7225;59.282;18.344;2022-08-23T04:22:16;4.80;;;1.30;;
14282;SDS011;7225;59.282;18.344;2022-08-23T04:24:45;2.53;;;0.97;;
14282;SDS011;7225;59.282;18.344;2022-08-23T04:27:14;1.97;;;1.10;;
14282;SDS011;7225;59.282;18.344;2022-08-23T04:29:42;3.53;;;1.27;;
14282;SDS011;7225;59.282;18.344;2022-08-23T04:32:10;1.83;;;1.47;;
14282;SDS011;7225;59.282;18.344;2022-08-23T04:34:38;3.10;;;1.40;;
14282;SDS011;7225;59.282;18.344;2022-08-23T04:37:11;2.30;;;1.33;;
14282;SDS011;7225;59.282;18.344;2022-08-23T04:39:39;2.83;;;1.33;;
14282;SDS011;7225;59.282;18.344;2022-08-23T04:42:26;2.03;;;1.30;;
14282;SDS011;7225;59.282;18.344;2022-08-23T04:44:53;2.30;;;1.30;;
14282;SDS011;7225;59.282;18.344;2022-08-23T04:47:21;2.13;;;1.10;;
14282;SDS011;7225;59.282;18.344;2022-08-23T04:49:49;5.60;;;1.50;;
14282;SDS011;7225;59.282;18.344;2022-08-23T04:52:18;5.47;;;1.60;;
14282;SDS011;7225;59.282;18.344;2022-08-23T04:54:46;1.90;;;1.30;;
14282;SDS011;7225;59.282;18.344;2022-08-23T04:57:15;4.13;;;1.37;;
14282;SDS011;7225;59.282;18.344;2022-08-23T04:59:43;3.27;;;1.33;;
14282;SDS011;7225;59.282;18.344;2022-08-23T05:02:11;3.07;;;1.27;;
14282;SDS011;7225;59.282;18.344;2022-08-23T05:04:39;2.60;;;0.93;;
14282;SDS011;7225;59.282;18.344;2022-08-23T05:07:06;1.63;;;1.13;;
14282;SDS011;7225;59.282;18.344;2022-08-23T05:09:35;3.17;;;1.30;;
14282;SDS011;7225;59.282;18.344;2022-08-23T05:12:03;2.53;;;1.30;;
14282;SDS011;7225;59.282;18.344;2022-08-23T05:14:32;3.83;;;1.33;;
14282;SDS011;7225;59.282;18.344;2022-08-23T05:16:59;3.93;;;1.17;;
14282;SDS011;7225;59.282;18.344;2022-08-23T05:19:28;4.37;;;1.50;;
14282;SDS011;7225;59.282;18.344;2022-08-23T05:21:55;2.97;;;1.37;;
14282;SDS011;7225;59.282;18.344;2022-08-23T05:24:24;4.67;;;1.23;;
14282;SDS011;7225;59.282;18.344;2022-08-23T05:26:52;3.30;;;1.20;;
14282;SDS011;7225;59.282;18.344;2022-08-23T05:29:21;4.50;;;1.13;;
14282;SDS011;7225;59.282;18.344;2022-08-23T05:31:50;2.23;;;1.10;;
14282;SDS011;7225;59.282;18.344;2022-08-23T05:34:18;3.00;;;1.10;;
14282;SDS011;7225;59.282;18.344;2022-08-23T05:36:48;1.37;;;1.00;;
14282;SDS011;7225;59.282;18.344;2022-08-23T05:39:23;2.97;;;1.37;;
14282;SDS011;7225;59.282;18.344;2022-08-23T05:42:05;2.27;;;1.10;;
14282;SDS011;7225;59.282;18.344;2022-08-23T05:44:34;3.10;;;1.40;;
14282;SDS011;7225;59.282;18.344;2022-08-23T05:47:04;1.93;;;1.40;;
14282;SDS011;7225;59.282;18.344;2022-08-23T05:49:37;1.60;;;1.10;;
14282;SDS011;7225;59.282;18.344;2022-08-23T05:52:06;7.37;;;1.70;;
14282;SDS011;7225;59.282;18.344;2022-08-23T05:54:39;2.93;;;1.07;;
14282;SDS011;7225;59.282;18.344;2022-08-23T05:57:09;2.23;;;1.13;;
14282;SDS011;7225;59.282;18.344;2022-08-23T05:59:37;3.83;;;1.37;;
14282;SDS011;7225;59.282;18.344;2022-08-23T06:02:07;3.43;;;1.50;;
14282;SDS011;7225;59.282;18.344;2022-08-23T06:04:36;2.40;;;1.17;;
14282;SDS011;7225;59.282;18.344;2022-08-23T06:07:05;4.93;;;1.33;;
14282;SDS011;7225;59.282;18.344;2022-08-23T06:09:33;7.87;;;1.73;;
14282;SDS011;7225;59.282;18.344;2022-08-23T06:12:02;3.17;;;1.53;;
14282;SDS011;7225;59.282;18.344;2022-08-23T06:14:30;5.20;;;1.70;;
14282;SDS011;7225;59.282;18.344;2022-08-23T06:16:58;4.10;;;1.57;;
14282;SDS011;7225;59.282;18.344;2022-08-23T06:19:26;2.20;;;1.23;;
14282;SDS011;7225;59.282;18.344;2022-08-23T06:21:55;4.07;;;1.70;;
14282;SDS011;7225;59.282;18.344;2022-08-23T06:24:25;5.23;;;1.60;;
14282;SDS011;7225;59.282;18.344;2022-08-23T06:26:54;2.90;;;0.97;;
14282;SDS011;7225;59.282;18.344;2022-08-23T06:29:23;3.60;;;1.57;;
14282;SDS011;7225;59.282;18.344;2022-08-23T06:31:52;5.13;;;1.30;;
14282;SDS011;7225;59.282;18.344;2022-08-23T06:34:25;3.83;;;1.83;;
14282;SDS011;7225;59.282;18.344;2022-08-23T06:37:02;2.70;;;1.00;;
14282;SDS011;7225;59.282;18.344;2022-08-23T06:39:32;5.10;;;1.10;;
14282;SDS011;7225;59.282;18.344;2022-08-23T06:42:06;3.40;;;1.43;;
14282;SDS011;7225;59.282;18.344;2022-08-23T06:44:56;2.93;;;1.00;;
14282;SDS011;7225;59.282;18.344;2022-08-23T06:47:23;3.00;;;1.60;;
14282;SDS011;7225;59.282;18.344;2022-08-23T06:49:52;2.83;;;1.37;;
14282;SDS011;7225;59.282;18.344;2022-08-23T06:52:25;2.23;;;1.13;;
14282;SDS011;7225;59.282;18.344;2022-08-23T06:54:56;2.70;;;0.83;;
14282;SDS011;7225;59.282;18.344;2022-08-23T06:57:23;2.00;;;1.13;;
14282;SDS011;7225;59.282;18.344;2022-08-23T06:59:52;3.73;;;1.10;;
14282;SDS011;7225;59.282;18.344;2022-08-23T07:02:20;3.77;;;1.30;;
14282;SDS011;7225;59.282;18.344;2022-08-23T07:04:47;3.43;;;1.23;;
14282;SDS011;7225;59.282;18.344;2022-08-23T07:07:20;2.07;;;0.80;;
14282;SDS011;7225;59.282;18.344;2022-08-23T07:09:48;1.85;;;0.88;;
14282;SDS011;7225;59.282;18.344;2022-08-23T07:12:15;3.03;;;1.00;;
14282;SDS011;7225;59.282;18.344;2022-08-23T07:14:46;2.37;;;1.03;;
14282;SDS011;7225;59.282;18.344;2022-08-23T07:17:15;2.83;;;0.90;;
14282;SDS011;7225;59.282;18.344;2022-08-23T07:19:44;3.60;;;1.17;;
14282;SDS011;7225;59.282;18.344;2022-08-23T07:22:11;2.13;;;0.67;;
14282;SDS011;7225;59.282;18.344;2022-08-23T07:24:41;1.53;;;0.80;;
14282;SDS011;7225;59.282;18.344;2022-08-23T07:27:10;3.83;;;0.93;;
14282;SDS011;7225;59.282;18.344;2022-08-23T07:29:38;1.67;;;0.70;;
14282;SDS011;7225;59.282;18.344;2022-08-23T07:32:07;2.87;;;0.73;;
14282;SDS011;7225;59.282;18.344;2022-08-23T07:34:35;1.73;;;0.80;;
14282;SDS011;7225;59.282;18.344;2022-08-23T07:37:03;3.70;;;0.73;;
14282;SDS011;7225;59.282;18.344;2022-08-23T07:39:42;4.00;;;1.17;;
14282;SDS011;7225;59.282;18.344;2022-08-23T07:42:09;3.35;;;1.10;;
14282;SDS011;7225;59.282;18.344;2022-08-23T07:44:51;2.92;;;0.93;;
14282;SDS011;7225;59.282;18.344;2022-08-23T07:47:19;1.73;;;0.75;;
14282;SDS011;7225;59.282;18.344;2022-08-23T07:49:47;4.15;;;1.15;;
14282;SDS011;7225;59.282;18.344;2022-08-23T07:52:15;3.77;;;0.87;;
14282;SDS011;7225;59.282;18.344;2022-08-23T07:54:43;3.07;;;1.07;;
14282;SDS011;7225;59.282;18.344;2022-08-23T07:57:16;2.58;;;0.88;;
14282;SDS011;7225;59.282;18.344;2022-08-23T07:59:44;3.80;;;0.80;;
14282;SDS011;7225;59.282;18.344;2022-08-23T08:02:11;1.27;;;0.80;;
14282;SDS011;7225;59.282;18.344;2022-08-23T08:04:39;1.90;;;0.88;;
14282;SDS011;7225;59.282;18.344;2022-08-23T08:07:08;1.70;;;0.77;;
14282;SDS011;7225;59.282;18.344;2022-08-23T08:09:46;2.85;;;0.82;;
14282;SDS011;7225;59.282;18.344;2022-08-23T08:12:14;2.38;;;0.80;;
14282;SDS011;7225;59.282;18.344;2022-08-23T08:14:42;1.30;;;0.70;;
14282;SDS011;7225;59.282;18.344;2022-08-23T08:17:10;3.85;;;0.88;;
14282;SDS011;7225;59.282;18.344;2022-08-23T08:19:38;1.88;;;0.65;;
14282;SDS011;7225;59.282;18.344;2022-08-23T08:22:08;1.88;;;0.85;;
14282;SDS011;7225;59.282;18.344;2022-08-23T08:24:35;2.33;;;0.77;;
14282;SDS011;7225;59.282;18.344;2022-08-23T08:27:02;3.15;;;0.80;;
14282;SDS011;7225;59.282;18.344;2022-08-23T08:29:31;2.58;;;0.70;;
14282;SDS011;7225;59.282;18.344;2022-08-23T08:31:58;1.58;;;0.75;;
14282;SDS011;7225;59.282;18.344;2022-08-23T08:34:25;1.35;;;0.77;;
14282;SDS011;7225;59.282;18.344;2022-08-23T08:36:54;1.33;;;0.50;;
14282;SDS011;7225;59.282;18.344;2022-08-23T08:39:27;2.85;;;0.60;;
14282;SDS011;7225;59.282;18.344;2022-08-23T08:50:14;1.85;;;0.60;;
14282;SDS011;7225;59.282;18.344;2022-08-23T08:52:48;1.77;;;0.57;;
14282;SDS011;7225;59.282;18.344;2022-08-23T08:55:26;1.90;;;0.60;;
14282;SDS011;7225;59.282;18.344;2022-08-23T08:57:59;1.35;;;0.65;;
14282;SDS011;7225;59.282;18.344;2022-08-23T09:00:33;0.57;;;0.30;;
14282;SDS011;7225;59.282;18.344;2022-08-23T09:03:07;1.70;;;0.47;;
14282;SDS011;7225;59.282;18.344;2022-08-23T09:05:47;1.10;;;0.40;;
14282;SDS011;7225;59.282;18.344;2022-08-23T09:08:56;1.95;;;0.63;;
14282;SDS011;7225;59.282;18.344;2022-08-23T09:14:29;1.95;;;0.85;;
14282;SDS011;7225;59.282;18.344;2022-08-23T09:20:05;2.20;;;0.70;;
14282;SDS011;7225;59.282;18.344;2022-08-23T09:22:36;2.35;;;0.85;;
14282;SDS011;7225;59.282;18.344;2022-08-23T09:25:08;2.42;;;1.00;;
14282;SDS011;7225;59.282;18.344;2022-08-23T09:27:38;0.82;;;0.40;;
14282;SDS011;7225;59.282;18.344;2022-08-23T09:30:09;1.38;;;0.70;;
14282;SDS011;7225;59.282;18.344;2022-08-23T09:32:41;1.90;;;0.50;;
14282;SDS011;7225;59.282;18.344;2022-08-23T09:35:20;3.00;;;1.05;;
14282;SDS011;7225;59.282;18.344;2022-08-23T09:40:30;2.33;;;0.73;;
14282;SDS011;7225;59.282;18.344;2022-08-23T09:43:11;1.40;;;0.40;;
14282;SDS011;7225;59.282;18.344;2022-08-23T09:51:16;1.05;;;0.60;;
14282;SDS011;7225;59.282;18.344;2022-08-23T09:56:40;1.58;;;0.47;;
14282;SDS011;7225;59.282;18.344;2022-08-23T09:59:27;4.18;;;0.93;;
14282;SDS011;7225;59.282;18.344;2022-08-23T10:02:07;0.95;;;0.43;;
14282;SDS011;7225;59.282;18.344;2022-08-23T10:07:40;1.42;;;0.47;;
14282;SDS011;7225;59.282;18.344;2022-08-23T10:10:35;2.55;;;0.90;;
14282;SDS011;7225;59.282;18.344;2022-08-23T10:13:14;0.98;;;0.60;;
14282;SDS011;7225;59.282;18.344;2022-08-23T10:26:30;2.13;;;0.65;;
14282;SDS011;7225;59.282;18.344;2022-08-23T10:29:10;1.75;;;0.85;;
14282;SDS011;7225;59.282;18.344;2022-08-23T10:37:33;0.82;;;0.30;;
14282;SDS011;7225;59.282;18.344;2022-08-23T10:40:31;1.08;;;0.40;;
14282;SDS011;7225;59.282;18.344;2022-08-23T10:45:52;1.35;;;0.50;;
14282;SDS011;7225;59.282;18.344;2022-08-23T10:48:34;2.53;;;0.73;;
14282;SDS011;7225;59.282;18.344;2022-08-23T10:51:10;2.15;;;0.57;;
14282;SDS011;7225;59.282;18.344;2022-08-23T10:54:20;2.90;;;0.70;;
14282;SDS011;7225;59.282;18.344;2022-08-23T10:57:01;1.60;;;0.50;;
14282;SDS011;7225;59.282;18.344;2022-08-23T10:59:32;1.70;;;0.40;;
14282;SDS011;7225;59.282;18.344;2022-08-23T11:08:06;2.15;;;0.65;;
14282;SDS011;7225;59.282;18.344;2022-08-23T11:15:44;2.50;;;0.65;;
14282;SDS011;7225;59.282;18.344;2022-08-23T11:23:45;1.60;;;0.43;;
14282;SDS011;7225;59.282;18.344;2022-08-23T11:28:53;2.58;;;0.60;;
14282;SDS011;7225;59.282;18.344;2022-08-23T11:44:57;1.67;;;0.52;;
14282;SDS011;7225;59.282;18.344;2022-08-23T11:47:38;0.77;;;0.40;;
14282;SDS011;7225;59.282;18.344;2022-08-23T11:53:07;0.55;;;0.30;;
14282;SDS011;7225;59.282;18.344;2022-08-23T12:01:45;2.80;;;0.80;;
14282;SDS011;7225;59.282;18.344;2022-08-23T12:06:54;2.20;;;0.45;;
14282;SDS011;7225;59.282;18.344;2022-08-23T12:16:58;2.35;;;0.60;;
14282;SDS011;7225;59.282;18.344;2022-08-23T12:19:50;1.15;;;0.30;;
14282;SDS011;7225;59.282;18.344;2022-08-23T12:22:28;0.60;;;0.40;;
14282;SDS011;7225;59.282;18.344;2022-08-23T12:25:17;3.30;;;0.50;;
14282;SDS011;7225;59.282;18.344;2022-08-23T12:27:54;0.73;;;0.35;;
14282;SDS011;7225;59.282;18.344;2022-08-23T12:30:25;3.83;;;0.65;;
14282;SDS011;7225;59.282;18.344;2022-08-23T12:33:06;0.55;;;0.40;;
14282;SDS011;7225;59.282;18.344;2022-08-23T12:35:54;0.75;;;0.30;;
14282;SDS011;7225;59.282;18.344;2022-08-23T12:39:00;1.48;;;0.40;;
14282;SDS011;7225;59.282;18.344;2022-08-23T12:44:27;1.80;;;1.05;;
14282;SDS011;7225;59.282;18.344;2022-08-23T12:47:17;0.98;;;0.50;;
14282;SDS011;7225;59.282;18.344;2022-08-23T12:49:54;1.45;;;0.40;;
14282;SDS011;7225;59.282;18.344;2022-08-23T12:52:33;1.85;;;0.40;;
14282;SDS011;7225;59.282;18.344;2022-08-23T12:55:02;1.27;;;0.40;;
14282;SDS011;7225;59.282;18.344;2022-08-23T12:57:39;0.65;;;0.22;;
14282;SDS011;7225;59.282;18.344;2022-08-23T13:00:22;2.10;;;0.40;;
14282;SDS011;7225;59.282;18.344;2022-08-23T13:03:05;0.40;;;0.30;;
14282;SDS011;7225;59.282;18.344;2022-08-23T13:05:52;1.00;;;0.40;;
14282;SDS011;7225;59.282;18.344;2022-08-23T13:11:02;1.10;;;0.47;;
14282;SDS011;7225;59.282;18.344;2022-08-23T13:13:36;2.88;;;0.77;;
14282;SDS011;7225;59.282;18.344;2022-08-23T13:19:09;1.23;;;0.40;;
14282;SDS011;7225;59.282;18.344;2022-08-23T13:21:43;1.42;;;0.60;;
14282;SDS011;7225;59.282;18.344;2022-08-23T13:24:25;2.42;;;0.60;;
14282;SDS011;7225;59.282;18.344;2022-08-23T13:27:18;0.90;;;0.40;;
14282;SDS011;7225;59.282;18.344;2022-08-23T13:32:47;0.73;;;0.38;;
14282;SDS011;7225;59.282;18.344;2022-08-23T13:41:01;1.15;;;0.40;;
14282;SDS011;7225;59.282;18.344;2022-08-23T13:46:17;1.05;;;0.30;;
14282;SDS011;7225;59.282;18.344;2022-08-23T13:51:33;0.47;;;0.40;;
14282;SDS011;7225;59.282;18.344;2022-08-23T13:54:05;2.22;;;0.40;;
14282;SDS011;7225;59.282;18.344;2022-08-23T13:56:39;1.40;;;0.52;;
14282;SDS011;7225;59.282;18.344;2022-08-23T14:01:57;0.60;;;0.30;;
14282;SDS011;7225;59.282;18.344;2022-08-23T14:04:27;1.52;;;0.60;;
14282;SDS011;7225;59.282;18.344;2022-08-23T14:06:56;0.60;;;0.30;;
14282;SDS011;7225;59.282;18.344;2022-08-23T14:09:25;1.10;;;0.50;;
14282;SDS011;7225;59.282;18.344;2022-08-23T14:11:53;2.13;;;0.57;;
14282;SDS011;7225;59.282;18.344;2022-08-23T14:14:26;3.00;;;0.40;;
14282;SDS011;7225;59.282;18.344;2022-08-23T14:16:58;1.00;;;0.43;;
14282;SDS011;7225;59.282;18.344;2022-08-23T14:19:29;1.55;;;0.60;;
14282;SDS011;7225;59.282;18.344;2022-08-23T14:22:18;2.00;;;0.63;;
14282;SDS011;7225;59.282;18.344;2022-08-23T14:24:46;1.05;;;0.40;;
14282;SDS011;7225;59.282;18.344;2022-08-23T14:27:16;1.73;;;0.63;;
14282;SDS011;7225;59.282;18.344;2022-08-23T14:29:44;0.73;;;0.30;;
14282;SDS011;7225;59.282;18.344;2022-08-23T14:32:13;2.15;;;0.60;;
14282;SDS011;7225;59.282;18.344;2022-08-23T14:34:42;1.52;;;0.63;;
14282;SDS011;7225;59.282;18.344;2022-08-23T14:37:10;1.77;;;0.50;;
14282;SDS011;7225;59.282;18.344;2022-08-23T14:39:57;1.67;;;0.80;;
14282;SDS011;7225;59.282;18.344;2022-08-23T14:42:26;1.23;;;0.60;;
14282;SDS011;7225;59.282;18.344;2022-08-23T14:44:54;1.48;;;0.57;;
14282;SDS011;7225;59.282;18.344;2022-08-23T14:47:21;2.22;;;0.70;;
14282;SDS011;7225;59.282;18.344;2022-08-23T14:49:48;2.28;;;0.60;;
14282;SDS011;7225;59.282;18.344;2022-08-23T14:52:19;2.35;;;0.88;;
14282;SDS011;7225;59.282;18.344;2022-08-23T14:54:47;1.95;;;1.13;;
14282;SDS011;7225;59.282;18.344;2022-08-23T14:57:15;1.85;;;0.68;;
14282;SDS011;7225;59.282;18.344;2022-08-23T14:59:42;2.80;;;0.70;;
14282;SDS011;7225;59.282;18.344;2022-08-23T15:02:10;2.42;;;0.70;;
14282;SDS011;7225;59.282;18.344;2022-08-23T15:04:39;1.48;;;0.55;;
14282;SDS011;7225;59.282;18.344;2022-08-23T15:07:08;2.35;;;0.70;;
14282;SDS011;7225;59.282;18.344;2022-08-23T15:09:49;2.42;;;0.68;;
14282;SDS011;7225;59.282;18.344;2022-08-23T15:12:20;2.10;;;0.65;;
14282;SDS011;7225;59.282;18.344;2022-08-23T15:15:09;1.20;;;0.70;;
14282;SDS011;7225;59.282;18.344;2022-08-23T15:17:49;2.42;;;0.75;;
14282;SDS011;7225;59.282;18.344;2022-08-23T15:20:30;1.10;;;0.50;;
14282;SDS011;7225;59.282;18.344;2022-08-23T15:23:00;0.98;;;0.40;;
14282;SDS011;7225;59.282;18.344;2022-08-23T15:25:28;0.77;;;0.50;;
14282;SDS011;7225;59.282;18.344;2022-08-23T15:27:59;1.52;;;0.70;;
14282;SDS011;7225;59.282;18.344;2022-08-23T15:30:33;1.48;;;0.60;;
14282;SDS011;7225;59.282;18.344;2022-08-23T15:33:01;1.25;;;0.65;;
14282;SDS011;7225;59.282;18.344;2022-08-23T15:35:29;6.78;;;0.68;;
14282;SDS011;7225;59.282;18.344;2022-08-23T15:38:05;0.85;;;0.57;;
14282;SDS011;7225;59.282;18.344;2022-08-23T15:40:34;1.98;;;1.88;;
14282;SDS011;7225;59.282;18.344;2022-08-23T15:43:03;4.18;;;2.42;;
14282;SDS011;7225;59.282;18.344;2022-08-23T15:45:31;8.30;;;6.68;;
14282;SDS011;7225;59.282;18.344;2022-08-23T15:48:00;2.13;;;1.75;;
14282;SDS011;7225;59.282;18.344;2022-08-23T15:50:32;4.30;;;2.78;;
14282;SDS011;7225;59.282;18.344;2022-08-23T15:53:02;3.75;;;3.33;;
14282;SDS011;7225;59.282;18.344;2022-08-23T15:55:30;4.30;;;3.75;;
14282;SDS011;7225;59.282;18.344;2022-08-23T15:57:59;1.83;;;1.67;;
14282;SDS011;7225;59.282;18.344;2022-08-23T16:00:27;7.82;;;2.78;;
14282;SDS011;7225;59.282;18.344;2022-08-23T16:02:56;1.38;;;1.10;;
14282;SDS011;7225;59.282;18.344;2022-08-23T16:05:45;2.75;;;2.35;;
14282;SDS011;7225;59.282;18.344;2022-08-23T16:08:19;2.58;;;2.38;;
14282;SDS011;7225;59.282;18.344;2022-08-23T16:10:52;3.00;;;0.90;;
14282;SDS011;7225;59.282;18.344;2022-08-23T16:13:20;1.58;;;0.98;;
14282;SDS011;7225;59.282;18.344;2022-08-23T16:15:49;4.72;;;1.55;;
14282;SDS011;7225;59.282;18.344;2022-08-23T16:18:18;2.13;;;1.10;;
14282;SDS011;7225;59.282;18.344;2022-08-23T16:20:47;3.42;;;1.20;;
14282;SDS011;7225;59.282;18.344;2022-08-23T16:23:21;3.45;;;1.50;;
14282;SDS011;7225;59.282;18.344;2022-08-23T16:25:49;1.00;;;0.70;;
14282;SDS011;7225;59.282;18.344;2022-08-23T16:28:18;2.85;;;1.45;;
14282;SDS011;7225;59.282;18.344;2022-08-23T16:30:47;3.10;;;1.20;;
14282;SDS011;7225;59.282;18.344;2022-08-23T16:33:15;3.58;;;1.33;;
14282;SDS011;7225;59.282;18.344;2022-08-23T16:35:43;1.70;;;0.93;;
14282;SDS011;7225;59.282;18.344;2022-08-23T16:38:11;2.65;;;1.58;;
14282;SDS011;7225;59.282;18.344;2022-08-23T16:40:40;2.13;;;1.58;;
14282;SDS011;7225;59.282;18.344;2022-08-23T16:43:08;2.50;;;1.45;;
14282;SDS011;7225;59.282;18.344;2022-08-23T16:45:36;1.88;;;1.30;;
14282;SDS011;7225;59.282;18.344;2022-08-23T16:48:04;3.05;;;1.52;;
14282;SDS011;7225;59.282;18.344;2022-08-23T16:50:32;5.20;;;1.88;;
14282;SDS011;7225;59.282;18.344;2022-08-23T16:53:01;2.15;;;1.50;;
14282;SDS011;7225;59.282;18.344;2022-08-23T16:55:34;5.28;;;1.65;;
14282;SDS011;7225;59.282;18.344;2022-08-23T16:58:04;2.85;;;1.20;;
14282;SDS011;7225;59.282;18.344;2022-08-23T17:00:35;5.05;;;1.77;;
14282;SDS011;7225;59.282;18.344;2022-08-23T17:03:05;3.85;;;1.40;;
14282;SDS011;7225;59.282;18.344;2022-08-23T17:05:34;1.48;;;1.10;;
14282;SDS011;7225;59.282;18.344;2022-08-23T17:08:04;1.80;;;1.20;;
14282;SDS011;7225;59.282;18.344;2022-08-23T17:10:32;3.70;;;1.40;;
14282;SDS011;7225;59.282;18.344;2022-08-23T17:13:01;2.30;;;1.38;;
14282;SDS011;7225;59.282;18.344;2022-08-23T17:15:31;4.38;;;1.40;;
14282;SDS011;7225;59.282;18.344;2022-08-23T17:18:01;2.20;;;1.17;;
14282;SDS011;7225;59.282;18.344;2022-08-23T17:20:30;3.33;;;1.60;;
14282;SDS011;7225;59.282;18.344;2022-08-23T17:23:01;5.03;;;1.50;;
14282;SDS011;7225;59.282;18.344;2022-08-23T17:25:33;3.05;;;1.40;;
14282;SDS011;7225;59.282;18.344;2022-08-23T17:28:02;2.23;;;1.30;;